Time;durP1;ratioP1;P1;durP2;ratioP2;P2;SDS_P1;SDS_P2;PMS_P1;PMS_P2;Temp;Humidity;BMP_temperature;BMP_pressure;BME280_temperature;BME280_humidity;BME280_pressure;Samples;Min_cycle;Max_cycle;Signal;HPM_P1;HPM_P2
2023/01/25 00:00:40;;;;;;;29.35;15.73;;;;;;;;;;4828127;29;20045;-88
2023/01/25 00:03:06;;;;;;;28.23;17.48;;;;;;;;;;4830081;29;20141;-89
2023/01/25 00:05:32;;;;;;;33.28;18.23;;;;;;;;;;4814709;29;20046;-88
2023/01/25 00:07:58;;;;;;;28.45;16.88;;;;;;;;;;4814960;29;20041;-88
2023/01/25 00:10:24;;;;;;;30.67;16.92;;;;;;;;;;4827083;29;20389;-89
2023/01/25 00:12:50;;;;;;;30.20;17.13;;;;;;;;;;4829670;29;20050;-89
2023/01/25 00:15:16;;;;;;;26.08;15.25;;;;;;;;;;4829990;29;20057;-88
2023/01/25 00:17:43;;;;;;;26.83;16.85;;;;;;;;;;4814907;29;20060;-88
2023/01/25 00:20:09;;;;;;;28.40;17.13;;;;;;;;;;4827070;29;20088;-89
2023/01/25 00:22:35;;;;;;;31.05;16.70;;;;;;;;;;4841422;29;20049;-88
2023/01/25 00:25:01;;;;;;;30.80;15.63;;;;;;;;;;4844615;29;20049;-88
2023/01/25 00:27:27;;;;;;;32.42;17.55;;;;;;;;;;4826591;29;20057;-88
2023/01/25 00:29:53;;;;;;;32.58;17.63;;;;;;;;;;4844595;29;20050;-89
2023/01/25 00:32:28;;;;;;;28.73;16.73;;;;;;;;;;4826750;29;20132;-89
2023/01/25 00:34:55;;;;;;;28.30;16.77;;;;;;;;;;4829488;29;20054;-88
2023/01/25 00:37:36;;;;;;;29.30;16.98;;;;;;;;;;4829813;29;20419;-89
2023/01/25 00:40:02;;;;;;;27.85;16.25;;;;;;;;;;4822531;29;20066;-89
2023/01/25 00:42:28;;;;;;;26.27;15.30;;;;;;;;;;4829494;29;20053;-88
2023/01/25 00:44:54;;;;;;;28.73;17.42;;;;;;;;;;4814372;29;20049;-89
2023/01/25 00:47:20;;;;;;;31.80;16.35;;;;;;;;;;4844489;29;20053;-88
2023/01/25 00:49:46;;;;;;;30.58;16.98;;;;;;;;;;4829740;29;20069;-88
2023/01/25 00:52:13;;;;;;;26.85;15.77;;;;;;;;;;4826647;29;20496;-89
2023/01/25 00:54:39;;;;;;;36.95;18.05;;;;;;;;;;4827537;29;20129;-90
2023/01/25 00:57:06;;;;;;;29.92;17.52;;;;;;;;;;4814476;29;20068;-89
2023/01/25 00:59:32;;;;;;;36.20;19.70;;;;;;;;;;4826407;29;20480;-88
2023/01/25 01:01:58;;;;;;;35.72;20.30;;;;;;;;;;4836885;29;20507;-88
2023/01/25 01:04:25;;;;;;;28.48;15.95;;;;;;;;;;4829574;29;20045;-88
2023/01/25 01:06:52;;;;;;;27.35;15.63;;;;;;;;;;4815259;29;20108;-92
2023/01/25 01:09:19;;;;;;;28.42;17.23;;;;;;;;;;4827033;29;20084;-92
2023/01/25 01:11:45;;;;;;;30.05;17.00;;;;;;;;;;4829398;29;20140;-91
2023/01/25 01:14:11;;;;;;;34.30;17.05;;;;;;;;;;4817638;29;20046;-90
2023/01/25 01:16:37;;;;;;;30.27;18.02;;;;;;;;;;4828089;29;20107;-91
2023/01/25 01:19:03;;;;;;;33.75;17.75;;;;;;;;;;4826537;29;20101;-89
2023/01/25 01:21:29;;;;;;;36.10;17.25;;;;;;;;;;4842155;29;20153;-89
2023/01/25 01:23:56;;;;;;;30.05;17.92;;;;;;;;;;4814832;29;20053;-89
2023/01/25 01:26:22;;;;;;;30.63;17.83;;;;;;;;;;4829460;29;20132;-89
2023/01/25 01:28:48;;;;;;;30.35;16.92;;;;;;;;;;4844427;29;20049;-90
2023/01/25 01:31:19;;;;;;;34.53;18.02;;;;;;;;;;4826190;29;20136;-90
2023/01/25 01:33:48;;;;;;;31.42;17.90;;;;;;;;;;4828199;29;20076;-90
2023/01/25 01:36:15;;;;;;;33.38;18.40;;;;;;;;;;4829416;29;20105;-89
2023/01/25 01:38:41;;;;;;;33.40;18.88;;;;;;;;;;4845673;29;20045;-89
2023/01/25 01:41:08;;;;;;;36.78;20.27;;;;;;;;;;4829410;29;20057;-91
2023/01/25 01:43:34;;;;;;;32.88;18.75;;;;;;;;;;4845039;29;20136;-90
2023/01/25 01:46:01;;;;;;;31.67;17.65;;;;;;;;;;4848140;29;20487;-91
2023/01/25 01:48:36;;;;;;;33.88;19.05;;;;;;;;;;4829810;29;20496;-90
2023/01/25 01:51:14;;;;;;;33.05;18.00;;;;;;;;;;4843234;29;20136;-91
2023/01/25 01:53:42;;;;;;;35.30;18.27;;;;;;;;;;4836812;29;20057;-91
2023/01/25 01:56:10;;;;;;;31.23;18.83;;;;;;;;;;4832832;29;20046;-92
2023/01/25 01:58:37;;;;;;;29.20;17.42;;;;;;;;;;4831859;29;20062;-89
2023/01/25 02:01:03;;;;;;;35.13;19.13;;;;;;;;;;4829940;29;20050;-89
2023/01/25 02:03:30;;;;;;;28.95;17.67;;;;;;;;;;4829036;29;20400;-89
2023/01/25 02:06:00;;;;;;;35.85;19.60;;;;;;;;;;4817339;29;20503;-88
2023/01/25 02:08:27;;;;;;;35.50;18.77;;;;;;;;;;4828904;29;20050;-89
2023/01/25 02:10:53;;;;;;;34.47;18.25;;;;;;;;;;4831893;29;20109;-89
2023/01/25 02:13:20;;;;;;;32.95;18.55;;;;;;;;;;4816720;29;20491;-89
2023/01/25 02:15:47;;;;;;;35.08;19.63;;;;;;;;;;4830239;29;20054;-88
2023/01/25 02:18:13;;;;;;;37.55;19.23;;;;;;;;;;4828445;29;20046;-89
2023/01/25 02:20:41;;;;;;;37.45;21.17;;;;;;;;;;4830183;29;20042;-91
2023/01/25 02:23:26;;;;;;;36.60;20.13;;;;;;;;;;4830303;29;20057;-92
2023/01/25 02:25:53;;;;;;;38.80;21.10;;;;;;;;;;4831692;29;20049;-91
2023/01/25 02:28:23;;;;;;;37.78;20.83;;;;;;;;;;4832562;29;20064;-92
2023/01/25 02:30:50;;;;;;;37.97;22.23;;;;;;;;;;4831469;29;20505;-93
2023/01/25 02:33:16;;;;;;;42.30;22.60;;;;;;;;;;4817455;29;20384;-92
2023/01/25 02:35:44;;;;;;;42.55;22.90;;;;;;;;;;4830377;29;20053;-90
2023/01/25 02:38:12;;;;;;;40.33;22.67;;;;;;;;;;4828891;29;20050;-89
2023/01/25 02:40:52;;;;;;;44.72;23.67;;;;;;;;;;4829665;29;20049;-91
2023/01/25 02:43:18;;;;;;;42.97;23.95;;;;;;;;;;4828493;29;20066;-90
2023/01/25 02:45:49;;;;;;;42.95;24.13;;;;;;;;;;4828768;29;20085;-89
2023/01/25 02:48:15;;;;;;;45.45;24.42;;;;;;;;;;4846727;29;20056;-89
2023/01/25 02:50:41;;;;;;;44.22;23.55;;;;;;;;;;4829897;29;20058;-90
2023/01/25 02:53:07;;;;;;;50.13;26.42;;;;;;;;;;4846951;29;20091;-90
2023/01/25 02:55:33;;;;;;;45.25;25.25;;;;;;;;;;4816890;29;20045;-91
2023/01/25 02:57:59;;;;;;;49.67;24.88;;;;;;;;;;4827971;29;20149;-91
2023/01/25 03:00:25;;;;;;;51.88;26.00;;;;;;;;;;4827433;29;20058;-92
2023/01/25 03:02:51;;;;;;;45.90;24.35;;;;;;;;;;4831631;29;20089;-89
2023/01/25 03:05:17;;;;;;;41.30;23.17;;;;;;;;;;4827982;29;20492;-89
2023/01/25 03:07:43;;;;;;;46.63;24.33;;;;;;;;;;4814457;29;20514;-89
2023/01/25 03:10:10;;;;;;;45.97;24.98;;;;;;;;;;4828027;29;20105;-89
2023/01/25 03:12:36;;;;;;;44.65;23.83;;;;;;;;;;4828098;29;20053;-90
2023/01/25 03:15:02;;;;;;;53.40;27.58;;;;;;;;;;4827949;29;20061;-89
2023/01/25 03:17:30;;;;;;;44.70;25.48;;;;;;;;;;4842278;29;20050;-89
2023/01/25 03:19:56;;;;;;;43.53;24.10;;;;;;;;;;4831111;29;20045;-89
2023/01/25 03:22:22;;;;;;;45.75;24.75;;;;;;;;;;4830746;29;20045;-89
2023/01/25 03:24:48;;;;;;;47.85;22.80;;;;;;;;;;4815743;29;20049;-87
2023/01/25 03:27:16;;;;;;;50.55;27.08;;;;;;;;;;4827733;29;20045;-89
2023/01/25 03:29:42;;;;;;;48.17;26.30;;;;;;;;;;4813953;29;20503;-89
2023/01/25 03:32:08;;;;;;;53.85;27.08;;;;;;;;;;4827692;29;20053;-88
2023/01/25 03:34:34;;;;;;;51.85;26.85;;;;;;;;;;4842823;29;20042;-90
2023/01/25 03:37:00;;;;;;;51.15;25.92;;;;;;;;;;4815529;29;20091;-90
2023/01/25 03:39:26;;;;;;;64.68;27.83;;;;;;;;;;4815611;29;20105;-92
2023/01/25 03:41:52;;;;;;;48.15;24.63;;;;;;;;;;4815787;29;20049;-92
2023/01/25 03:44:18;;;;;;;50.00;27.83;;;;;;;;;;4815534;29;20046;-91
2023/01/25 03:46:44;;;;;;;55.20;27.42;;;;;;;;;;4846124;29;20049;-91
2023/01/25 03:49:10;;;;;;;53.00;26.65;;;;;;;;;;4830839;29;20077;-91
2023/01/25 03:51:36;;;;;;;49.38;23.65;;;;;;;;;;4816079;29;20403;-91
2023/01/25 03:54:02;;;;;;;50.15;26.38;;;;;;;;;;4815066;29;20088;-89
2023/01/25 03:56:29;;;;;;;51.28;25.70;;;;;;;;;;4815164;29;20107;-92
2023/01/25 03:58:55;;;;;;;55.80;27.65;;;;;;;;;;4831303;29;20061;-90
2023/01/25 04:01:21;;;;;;;53.50;27.33;;;;;;;;;;4827983;29;20181;-89
2023/01/25 04:03:47;;;;;;;48.28;26.42;;;;;;;;;;4814160;29;20052;-90
2023/01/25 04:06:13;;;;;;;50.95;26.92;;;;;;;;;;4827352;29;20426;-90
2023/01/25 04:08:39;;;;;;;56.17;28.35;;;;;;;;;;4828198;29;20053;-88
2023/01/25 04:11:06;;;;;;;48.38;24.92;;;;;;;;;;4846237;29;20068;-90
2023/01/25 04:13:35;;;;;;;51.65;25.65;;;;;;;;;;4827416;29;20140;-89
2023/01/25 04:16:01;;;;;;;57.67;27.98;;;;;;;;;;4824102;29;20055;-89
2023/01/25 04:18:27;;;;;;;50.42;25.80;;;;;;;;;;4833741;29;20049;-89
2023/01/25 04:20:54;;;;;;;51.17;27.40;;;;;;;;;;4845199;29;20053;-89
2023/01/25 04:23:20;;;;;;;51.13;26.23;;;;;;;;;;4827037;29;20491;-88
2023/01/25 04:26:13;;;;;;;50.72;26.70;;;;;;;;;;4828606;29;20444;-89
2023/01/25 04:28:39;;;;;;;55.25;27.88;;;;;;;;;;4826394;29;20053;-89
2023/01/25 04:31:05;;;;;;;56.63;28.35;;;;;;;;;;4814471;29;20053;-89
2023/01/25 04:33:32;;;;;;;51.65;26.55;;;;;;;;;;4814713;29;20076;-90
2023/01/25 04:35:58;;;;;;;50.63;27.23;;;;;;;;;;4822126;29;20045;-90
2023/01/25 04:38:24;;;;;;;51.15;26.75;;;;;;;;;;4844564;29;20503;-89
2023/01/25 04:40:51;;;;;;;50.22;26.63;;;;;;;;;;4829492;29;20074;-89
2023/01/25 04:43:18;;;;;;;51.03;26.60;;;;;;;;;;4826561;29;20054;-89
2023/01/25 04:45:44;;;;;;;53.58;27.70;;;;;;;;;;4828009;29;20132;-90
2023/01/25 04:48:11;;;;;;;46.95;25.58;;;;;;;;;;4814188;29;20048;-88
2023/01/25 04:50:37;;;;;;;45.75;24.70;;;;;;;;;;4844695;29;20089;-89
2023/01/25 04:53:04;;;;;;;50.97;26.98;;;;;;;;;;4826657;29;20456;-90
2023/01/25 04:55:30;;;;;;;54.90;27.02;;;;;;;;;;4841115;29;20060;-90
2023/01/25 04:57:56;;;;;;;48.28;24.48;;;;;;;;;;4829125;29;20147;-89
2023/01/25 05:00:22;;;;;;;48.88;25.17;;;;;;;;;;4829925;29;20509;-89
2023/01/25 05:02:48;;;;;;;47.80;23.73;;;;;;;;;;4829686;29;20053;-92
2023/01/25 05:05:14;;;;;;;51.83;26.45;;;;;;;;;;4814821;29;20045;-93
2023/01/25 05:07:40;;;;;;;45.92;24.92;;;;;;;;;;4829909;29;20060;-92
2023/01/25 05:10:07;;;;;;;52.00;27.02;;;;;;;;;;4832364;29;20167;-92
2023/01/25 05:12:33;;;;;;;62.80;26.40;;;;;;;;;;4833651;29;20060;-89
2023/01/25 05:14:59;;;;;;;49.20;25.67;;;;;;;;;;4818458;29;20056;-92
2023/01/25 05:17:25;;;;;;;57.33;26.90;;;;;;;;;;4818327;29;20045;-92
2023/01/25 05:19:51;;;;;;;46.17;24.80;;;;;;;;;;4848945;29;20140;-92
2023/01/25 05:22:19;;;;;;;56.33;28.10;;;;;;;;;;4820110;29;20491;-91
2023/01/25 05:24:46;;;;;;;53.47;28.20;;;;;;;;;;4838047;29;20042;-90
2023/01/25 05:27:13;;;;;;;55.35;27.73;;;;;;;;;;4835757;29;20132;-91
2023/01/25 05:29:40;;;;;;;52.38;26.67;;;;;;;;;;4832946;29;20507;-90
2023/01/25 05:32:07;;;;;;;46.17;25.75;;;;;;;;;;4817763;29;20045;-89
2023/01/25 05:34:34;;;;;;;53.25;24.02;;;;;;;;;;4832760;29;20077;-90
2023/01/25 05:37:00;;;;;;;52.65;27.30;;;;;;;;;;4817844;29;20049;-90
2023/01/25 05:39:26;;;;;;;54.35;28.58;;;;;;;;;;4832752;29;20094;-91
2023/01/25 05:41:53;;;;;;;51.40;25.98;;;;;;;;;;4817499;29;20053;-91
2023/01/25 05:44:19;;;;;;;50.90;25.95;;;;;;;;;;4832780;29;20061;-89
2023/01/25 05:46:45;;;;;;;48.13;24.88;;;;;;;;;;4832694;29;20125;-90
2023/01/25 05:49:11;;;;;;;56.38;29.40;;;;;;;;;;4832584;29;20092;-91
2023/01/25 05:51:37;;;;;;;61.60;29.65;;;;;;;;;;4832299;29;20590;-91
2023/01/25 05:54:04;;;;;;;54.85;28.08;;;;;;;;;;4832370;29;20081;-91
2023/01/25 05:56:31;;;;;;;56.22;28.65;;;;;;;;;;4832486;29;20103;-91
2023/01/25 05:58:58;;;;;;;57.05;27.02;;;;;;;;;;4832057;29;20144;-90
2023/01/25 06:01:25;;;;;;;56.45;29.67;;;;;;;;;;4832235;29;20056;-89
2023/01/25 06:03:51;;;;;;;56.00;29.73;;;;;;;;;;4847571;29;20049;-91
2023/01/25 06:06:17;;;;;;;56.28;27.70;;;;;;;;;;4836642;29;20056;-89
2023/01/25 06:08:43;;;;;;;53.45;28.55;;;;;;;;;;4836942;29;20053;-89
2023/01/25 06:11:10;;;;;;;60.08;27.15;;;;;;;;;;4835806;29;20056;-88
2023/01/25 06:13:37;;;;;;;50.70;24.00;;;;;;;;;;4840899;29;20053;-88
2023/01/25 06:16:03;;;;;;;50.45;26.13;;;;;;;;;;4837793;29;20050;-88
2023/01/25 06:18:30;;;;;;;42.90;23.77;;;;;;;;;;4850780;29;20049;-88
2023/01/25 06:20:57;;;;;;;51.50;25.73;;;;;;;;;;4851497;29;20388;-89
2023/01/25 06:23:23;;;;;;;44.35;23.38;;;;;;;;;;4832482;29;20057;-89
2023/01/25 06:25:49;;;;;;;52.60;26.13;;;;;;;;;;4817795;29;20133;-89
2023/01/25 06:28:15;;;;;;;48.97;25.45;;;;;;;;;;4828553;29;20522;-88
2023/01/25 06:30:41;;;;;;;52.85;25.38;;;;;;;;;;4816177;29;20516;-88
2023/01/25 06:33:07;;;;;;;45.08;22.83;;;;;;;;;;4817866;29;20053;-88
2023/01/25 06:35:34;;;;;;;47.25;22.15;;;;;;;;;;4846879;29;20056;-89
2023/01/25 06:38:00;;;;;;;47.10;24.85;;;;;;;;;;4846891;29;20058;-90
2023/01/25 06:40:27;;;;;;;43.50;24.80;;;;;;;;;;4828751;29;20449;-92
2023/01/25 06:42:53;;;;;;;43.20;25.10;;;;;;;;;;4816809;29;20081;-92
2023/01/25 06:45:19;;;;;;;47.20;24.70;;;;;;;;;;4816986;29;20128;-92
2023/01/25 06:47:47;;;;;;;43.38;22.48;;;;;;;;;;4831838;29;20042;-89
2023/01/25 06:50:14;;;;;;;44.13;22.80;;;;;;;;;;4847824;29;20049;-88
2023/01/25 06:52:40;;;;;;;47.15;21.73;;;;;;;;;;4846369;29;20045;-88
2023/01/25 06:55:08;;;;;;;44.85;22.58;;;;;;;;;;4816550;29;20057;-88
2023/01/25 06:57:34;;;;;;;44.67;22.35;;;;;;;;;;4839084;29;20058;-88
2023/01/25 07:00:01;;;;;;;43.45;23.50;;;;;;;;;;4812786;29;20046;-88
2023/01/25 07:02:27;;;;;;;42.17;21.50;;;;;;;;;;4813364;29;20046;-89
2023/01/25 07:04:53;;;;;;;42.55;22.90;;;;;;;;;;4813678;29;20050;-89
2023/01/25 07:07:19;;;;;;;42.75;23.70;;;;;;;;;;4812823;29;20534;-90
2023/01/25 07:09:45;;;;;;;46.88;24.67;;;;;;;;;;4813194;29;20042;-88
2023/01/25 07:12:11;;;;;;;46.25;22.27;;;;;;;;;;4812860;29;20050;-88
2023/01/25 07:14:37;;;;;;;38.95;21.00;;;;;;;;;;4812953;29;20574;-87
2023/01/25 07:17:03;;;;;;;45.58;24.65;;;;;;;;;;4812563;29;20098;-88
2023/01/25 07:19:30;;;;;;;45.35;23.10;;;;;;;;;;4812849;29;20517;-87
2023/01/25 07:21:56;;;;;;;44.30;23.55;;;;;;;;;;4813481;29;20049;-88
2023/01/25 07:24:25;;;;;;;48.70;25.00;;;;;;;;;;4812330;29;20060;-88
2023/01/25 07:26:51;;;;;;;42.90;22.80;;;;;;;;;;4812485;29;20541;-88
2023/01/25 07:29:17;;;;;;;43.90;24.38;;;;;;;;;;4812789;29;20145;-88
2023/01/25 07:31:44;;;;;;;38.83;22.75;;;;;;;;;;4811803;29;20054;-88
2023/01/25 07:34:11;;;;;;;42.40;22.65;;;;;;;;;;4812244;29;20050;-89
2023/01/25 07:36:38;;;;;;;44.40;24.02;;;;;;;;;;4812131;29;20605;-88
2023/01/25 07:39:04;;;;;;;41.63;21.70;;;;;;;;;;4812231;29;20413;-87
2023/01/25 07:41:31;;;;;;;45.42;23.25;;;;;;;;;;4812291;29;20453;-88
2023/01/25 07:43:57;;;;;;;43.30;24.52;;;;;;;;;;4812557;29;20050;-87
2023/01/25 07:46:23;;;;;;;45.97;23.05;;;;;;;;;;4811941;29;20045;-87
2023/01/25 07:48:50;;;;;;;44.72;24.05;;;;;;;;;;4812242;29;20085;-87
2023/01/25 07:51:28;;;;;;;48.00;25.38;;;;;;;;;;4811858;29;20057;-86
2023/01/25 07:53:59;;;;;;;47.20;25.65;;;;;;;;;;4811637;29;20077;-87
2023/01/25 07:56:27;;;;;;;47.13;23.55;;;;;;;;;;4826963;29;20046;-88
2023/01/25 07:59:03;;;;;;;41.40;23.27;;;;;;;;;;4836436;29;20431;-87
2023/01/25 08:01:35;;;;;;;49.90;24.20;;;;;;;;;;4829644;29;20109;-88
2023/01/25 08:04:01;;;;;;;42.38;22.45;;;;;;;;;;4844972;29;20125;-89
2023/01/25 08:06:37;;;;;;;46.78;23.92;;;;;;;;;;4815410;29;20103;-88
2023/01/25 08:09:14;;;;;;;46.58;24.02;;;;;;;;;;4831677;29;20050;-88
2023/01/25 08:11:40;;;;;;;49.00;25.52;;;;;;;;;;4831817;29;20049;-89
2023/01/25 08:14:07;;;;;;;40.70;21.38;;;;;;;;;;4831831;29;20049;-89
2023/01/25 08:16:34;;;;;;;46.70;24.83;;;;;;;;;;4831112;29;20045;-89
2023/01/25 08:19:01;;;;;;;54.20;26.58;;;;;;;;;;4830297;29;20117;-90
2023/01/25 08:21:28;;;;;;;51.97;26.58;;;;;;;;;;4829846;29;20045;-89
2023/01/25 08:23:55;;;;;;;49.22;24.35;;;;;;;;;;4830306;29;20053;-89
2023/01/25 08:26:30;;;;;;;43.05;22.83;;;;;;;;;;4829854;29;20459;-89
2023/01/25 08:28:59;;;;;;;48.97;25.00;;;;;;;;;;4830832;29;20118;-90
2023/01/25 08:31:29;;;;;;;47.38;24.45;;;;;;;;;;4829827;29;20041;-88
2023/01/25 08:33:55;;;;;;;44.28;23.05;;;;;;;;;;4829610;29;20053;-89
2023/01/25 08:36:26;;;;;;;49.33;25.63;;;;;;;;;;4844750;29;20046;-91
2023/01/25 08:38:54;;;;;;;47.80;26.05;;;;;;;;;;4830177;29;20049;-92
2023/01/25 08:41:41;;;;;;;43.55;24.30;;;;;;;;;;4845029;29;20046;-92
2023/01/25 08:47:49;;;;;;;45.83;24.50;;;;;;;;;;4804912;29;20049;-92
2023/01/25 08:50:16;;;;;;;47.30;22.90;;;;;;;;;;4860307;29;20121;-92
2023/01/25 08:52:42;;;;;;;53.45;27.58;;;;;;;;;;4829941;29;20053;-90
2023/01/25 08:55:08;;;;;;;46.58;24.60;;;;;;;;;;4829683;29;20050;-88
2023/01/25 08:57:34;;;;;;;46.63;25.20;;;;;;;;;;4844537;29;20488;-89
2023/01/25 09:00:00;;;;;;;50.90;24.75;;;;;;;;;;4829969;29;20057;-89
2023/01/25 09:02:26;;;;;;;50.60;25.80;;;;;;;;;;4829336;29;20051;-88
2023/01/25 09:04:53;;;;;;;52.05;27.35;;;;;;;;;;4829453;29;20478;-88
2023/01/25 09:07:23;;;;;;;45.47;23.35;;;;;;;;;;4829610;29;20124;-88
2023/01/25 09:10:00;;;;;;;50.25;25.60;;;;;;;;;;4829718;29;20157;-93
2023/01/25 09:12:30;;;;;;;53.08;25.77;;;;;;;;;;4829727;29;20206;-94
2023/01/25 09:14:56;;;;;;;48.38;21.25;;;;;;;;;;4844905;29;20049;-87
2023/01/25 09:17:22;;;;;;;49.75;24.90;;;;;;;;;;4844431;29;20054;-90
2023/01/25 09:19:48;;;;;;;43.70;22.42;;;;;;;;;;4844657;29;20466;-88
2023/01/25 09:22:14;;;;;;;47.00;21.98;;;;;;;;;;4844525;29;20061;-89
2023/01/25 09:24:40;;;;;;;49.67;25.08;;;;;;;;;;4829500;29;20492;-87
2023/01/25 09:27:06;;;;;;;42.53;21.55;;;;;;;;;;4844929;29;20407;-87
2023/01/25 09:29:32;;;;;;;43.63;22.75;;;;;;;;;;4844350;29;20053;-89
2023/01/25 09:31:58;;;;;;;51.03;24.95;;;;;;;;;;4814969;29;20320;-91
2023/01/25 09:34:24;;;;;;;44.00;23.48;;;;;;;;;;4830286;29;20050;-91
2023/01/25 09:36:51;;;;;;;55.53;25.77;;;;;;;;;;4867198;29;20148;-91
2023/01/25 09:39:17;;;;;;;50.80;25.02;;;;;;;;;;4823042;29;20062;-90
2023/01/25 09:41:46;;;;;;;45.28;23.60;;;;;;;;;;4834494;29;20049;-88
2023/01/25 09:44:19;;;;;;;47.00;23.42;;;;;;;;;;4829374;29;20511;-88
2023/01/25 09:46:52;;;;;;;55.78;24.75;;;;;;;;;;4829017;29;20053;-90
2023/01/25 09:49:41;;;;;;;52.67;26.20;;;;;;;;;;4845780;29;20041;-91
2023/01/25 09:52:30;;;;;;;48.08;22.35;;;;;;;;;;4829195;29;20049;-92
2023/01/25 09:54:59;;;;;;;51.05;23.92;;;;;;;;;;4830462;29;20050;-92
2023/01/25 09:57:32;;;;;;;49.47;24.58;;;;;;;;;;4829921;29;20056;-92
2023/01/25 09:59:59;;;;;;;47.40;23.92;;;;;;;;;;4815975;29;20410;-87
2023/01/25 10:02:35;;;;;;;53.13;25.48;;;;;;;;;;4814808;29;20554;-90
2023/01/25 10:05:11;;;;;;;54.40;26.05;;;;;;;;;;4814388;29;20526;-90
2023/01/25 10:07:45;;;;;;;47.50;22.65;;;;;;;;;;4814448;29;20602;-88
2023/01/25 10:10:23;;;;;;;;;;;0.40;99.90;;;;;;4829915;29;20056;-88
2023/01/25 10:12:49;;;;;;;45.70;21.45;;;;;;;;;;4815109;29;19936;-92
2023/01/25 10:15:23;;;;;;;43.92;20.20;;;;;;;;;;4814294;29;20186;-90
2023/01/25 10:17:57;;;;;;;47.00;20.77;;;;;;;;;;4814361;29;20053;-91
2023/01/25 10:20:29;;;;;;;42.50;19.48;;;;;;;;;;4815233;29;20049;-89
2023/01/25 10:23:14;;;;;;;39.33;20.10;;;;;;;;;;4830000;29;20066;-92
2023/01/25 10:25:51;;;;;;;43.28;21.38;;;;;;;;;;4814726;29;20049;-91
2023/01/25 10:28:36;;;;;;;38.00;18.25;;;;;;;;;;4830572;29;20049;-92
2023/01/25 10:31:10;;;;;;;40.08;20.98;;;;;;;;;;4816558;29;20057;-88
2023/01/25 10:33:42;;;;;;;47.10;22.13;;;;;;;;;;4821544;29;20054;-88
2023/01/25 10:36:12;;;;;;;45.22;20.10;;;;;;;;;;4822867;29;20066;-89
2023/01/25 10:38:44;;;;;;;47.72;23.23;;;;;;;;;;4823098;29;20132;-89
2023/01/25 10:41:10;;;;;;;43.75;18.70;;;;;;;;;;4819344;29;20052;-90
2023/01/25 10:43:36;;;;;;;48.70;22.45;;;;;;;;;;4817455;29;20050;-92
2023/01/25 10:46:02;;;;;;;42.97;21.65;;;;;;;;;;4802657;29;20050;-92
2023/01/25 10:48:31;;;;;;;44.42;22.35;;;;;;;;;;4816897;29;20089;-92
2023/01/25 10:50:58;;;;;;;47.20;22.20;;;;;;;;;;4815480;29;20499;-89
2023/01/25 10:53:29;;;;;;;43.88;20.63;;;;;;;;;;4830256;29;20102;-90
2023/01/25 10:55:56;;;;;;;49.17;24.85;;;;;;;;;;4815631;29;20053;-91
2023/01/25 10:58:48;;;;;;;45.58;21.20;;;;;;;;;;4828013;29;20061;-90
2023/01/25 11:01:26;;;;;;;45.75;22.27;;;;;;;;;;4829062;29;20045;-88
2023/01/25 11:03:55;;;;;;;45.55;22.23;;;;;;;;;;4835796;29;20050;-92
2023/01/25 11:06:31;;;;;;;40.95;21.27;;;;;;;;;;4851149;29;20551;-91
2023/01/25 11:55:57;;;;;;;;;;;1.10;99.90;;;;;;4881935;29;20112;-90
2023/01/25 11:58:56;;;;;;;52.65;23.08;;;1.10;99.90;;;;;;4838594;29;19964;-94
2023/01/25 12:05:24;;;;;;;57.28;22.02;;;;;;;;;;4825076;29;20091;-92
2023/01/25 12:11:31;;;;;;;54.90;23.23;;;;;;;;;;4806913;29;20050;-92
2023/01/25 12:17:38;;;;;;;53.83;24.88;;;;;;;;;;4806439;29;20196;-92
2023/01/25 12:20:12;;;;;;;50.40;18.65;;;;;;;;;;4791072;29;20557;-92
2023/01/25 12:25:50;;;;;;;49.63;23.13;;;;;;;;;;4791281;29;20051;-91
2023/01/25 12:28:20;;;;;;;52.15;22.10;;;;;;;;;;4776517;29;20443;-92
2023/01/25 12:30:57;;;;;;;69.05;24.13;;;;;;;;;;4832223;29;20105;-95
2023/01/25 12:37:27;;;;;;;59.38;24.95;;;;;;;;;;4861238;29;20053;-93
2023/01/25 12:39:57;;;;;;;66.80;24.70;;;;;;;;;;4847404;29;20056;-91
2023/01/25 12:42:39;;;;;;;57.78;22.05;;;;;;;;;;4849968;29;20184;-92
2023/01/25 12:45:38;;;;;;;51.33;23.52;;;;;;;;;;4847897;29;20081;-92
2023/01/25 12:48:10;;;;;;;58.70;23.38;;;;;;;;;;4833572;29;20522;-92
2023/01/25 12:50:42;;;;;;;54.33;23.17;;;;;;;;;;4826493;29;20207;-90
2023/01/25 12:57:28;;;;;;;45.58;21.00;;;;;;;;;;4841855;29;20541;-90
2023/01/25 13:00:17;;;;;;;63.60;26.05;;;;;;;;;;4809964;29;20106;-89
2023/01/25 13:03:20;;;;;;;;;;;;;;;;;;;;;
2023/01/25 13:10:29;;;;;;;;;;;;;;;;;;;;;
2023/01/25 13:20:18;;;;;;;56.53;24.50;;;;;;;;;;5155031;23;20064;-88
2023/01/25 13:22:45;;;;;;;52.72;22.48;;;;;;;;;;4825268;29;20150;-89
2023/01/25 13:25:21;;;;;;;49.97;21.95;;;;;;;;;;4825700;29;20054;-91
2023/01/25 13:27:47;;;;;;;58.03;22.52;;;;;;;;;;4826134;29;20060;-88
2023/01/25 13:32:54;;;;;;;58.78;23.25;;;;;;;;;;4863688;29;20046;-91
2023/01/25 13:35:35;;;;;;;56.33;22.23;;;;;;;;;;4849501;29;20050;-94
2023/01/25 13:44:48;;;;;;;63.38;24.52;;;;;;;;;;4846456;29;20481;-89
2023/01/25 13:47:22;;;;;;;67.65;23.75;;;;;;;;;;4846315;24;20054;-91
2023/01/25 13:49:55;;;;;;;70.32;25.48;;;;;;;;;;4832011;29;20061;-95
2023/01/25 13:52:31;;;;;;;53.08;23.63;;;;;;;;;;4833578;29;20057;-94
2023/01/25 13:55:03;;;;;;;63.40;27.08;;;;;;;;;;4833317;29;20132;-89
2023/01/25 13:57:30;;;;;;;58.42;23.55;;;;;;;;;;4833242;29;20050;-91
2023/01/25 14:00:16;;;;;;;54.40;24.63;;;;;;;;;;4833360;29;20570;-90
2023/01/25 14:02:45;;;;;;;61.55;24.85;;;;;;;;;;4834148;29;20049;-89
2023/01/25 14:09:32;;;;;;;55.85;23.88;;;1.60;99.90;;;;;;4864755;29;20048;-90
2023/01/25 14:12:00;;;;;;;57.85;25.40;;;;;;;;;;4832212;29;20078;-90
2023/01/25 14:14:32;;;;;;;66.20;26.08;;;;;;;;;;4847548;29;20495;-90
2023/01/25 14:17:04;;;;;;;66.63;25.00;;;;;;;;;;4832501;29;20141;-90
2023/01/25 14:23:21;;;;;;;55.28;24.65;;;;;;;;;;4864811;29;20040;-93
2023/01/25 14:25:47;;;;;;;62.95;25.85;;;;;;;;;;4864637;29;20132;-90
2023/01/25 14:28:14;;;;;;;54.00;23.88;;;;;;;;;;4834794;29;20056;-92
2023/01/25 14:30:40;;;;;;;56.70;25.77;;;;;;;;;;4842546;29;20533;-90
2023/01/25 14:33:18;;;;;;;60.55;25.20;;;;;;;;;;4832139;29;20061;-90
2023/01/25 14:42:01;;;;;;;58.72;26.90;;;;;;;;;;1743252;23;20473;-90
2023/01/25 14:44:28;;;;;;;56.85;26.15;;;;;;;;;;4832388;29;20407;-90
2023/01/25 14:47:32;;;;;;;59.95;24.98;;;1.40;99.90;;;;;;4831736;29;20045;-91
2023/01/25 14:50:32;;;;;;;57.92;28.75;;;1.30;99.90;;;;;;4847276;29;20414;-91
2023/01/25 14:53:00;;;;;;;67.25;25.77;;;;;;;;;;4847961;29;20076;-91
2023/01/25 14:55:26;;;;;;;60.03;25.13;;;;;;;;;;4832853;29;20050;-91
2023/01/25 14:57:53;;;;;;;52.60;22.80;;;;;;;;;;4834579;29;20074;-90
2023/01/25 15:00:23;;;;;;;58.03;25.17;;;;;;;;;;4850854;29;20057;-93
2023/01/25 15:02:57;;;;;;;57.97;26.05;;;;;;;;;;4866972;29;20052;-92
2023/01/25 15:05:28;;;;;;;61.78;25.38;;;;;;;;;;4854218;29;20057;-93
2023/01/25 15:07:57;;;;;;;64.30;26.48;;;;;;;;;;4855393;29;20104;-92
2023/01/25 15:13:19;;;;;;;58.65;26.75;;;;;;;;;;1022543;23;20955;-94
2023/01/25 15:16:15;;;;;;;63.25;26.25;;;;;;;;;;4888668;23;20053;-93
2023/01/25 15:18:41;;;;;;;58.40;26.65;;;;;;;;;;4795901;29;20095;-93
2023/01/25 15:21:26;;;;;;;73.38;29.17;;;;;;;;;;4813479;29;20057;-93
2023/01/25 15:27:36;;;;;;;57.47;26.42;;;1.40;99.90;;;;;;4827529;29;20057;-90
2023/01/25 15:30:03;;;;;;;64.63;28.77;;;;;;;;;;4824907;29;20046;-90
2023/01/25 15:32:35;;;;;;;72.00;28.13;;;;;;;;;;4843945;23;20050;-90
2023/01/25 15:38:39;;;;;;;63.38;26.65;;;;;;;;;;4854122;29;20061;-90
2023/01/25 15:44:46;;;;;;;78.63;27.85;;;;;;;;;;4862707;29;20048;-90
2023/01/25 15:47:12;;;;;;;71.78;28.90;;;;;;;;;;4845863;29;20049;-90
2023/01/25 15:49:38;;;;;;;61.55;25.73;;;;;;;;;;4830699;29;20121;-92
2023/01/25 15:52:05;;;;;;;58.33;25.48;;;;;;;;;;4816452;29;20139;-90
2023/01/25 15:58:12;;;;;;;68.43;29.13;;;;;;;;;;4862486;29;20064;-92
2023/01/25 16:00:38;;;;;;;69.05;28.00;;;;;;;;;;4830922;29;20152;-89
2023/01/25 16:03:06;;;;;;;52.85;21.73;;;;;;;;;;4831167;29;20049;-90
2023/01/25 16:05:32;;;;;;;73.68;30.38;;;;;;;;;;4830852;29;20155;-91
2023/01/25 16:07:58;;;;;;;62.03;28.02;;;;;;;;;;4819735;29;20053;-88
2023/01/25 16:10:24;;;;;;;65.75;29.08;;;;;;;;;;4811049;29;20152;-93
2023/01/25 16:13:05;;;;;;;;;;;;;;;;;;;;;
2023/01/25 16:19:13;;;;;;;75.82;29.05;;;;;;;;;;4862274;29;20518;-92
2023/01/25 16:21:40;;;;;;;65.70;27.67;;;;;;;;;;4831180;29;20045;-90
2023/01/25 16:24:06;;;;;;;71.45;25.48;;;;;;;;;;4830608;29;20061;-91
2023/01/25 16:26:33;;;;;;;76.07;29.55;;;;;;;;;;4830494;29;20057;-90
2023/01/25 16:28:59;;;;;;;72.72;30.77;;;;;;;;;;4823474;29;20049;-91
2023/01/25 16:31:28;;;;;;;71.43;30.63;;;;;;;;;;4815321;29;20041;-90
2023/01/25 16:34:06;;;;;;;77.32;32.10;;;;;;;;;;4845364;29;20058;-89
2023/01/25 16:36:33;;;;;;;79.35;30.20;;;;;;;;;;4830564;29;20056;-91
2023/01/25 16:45:44;;;;;;;58.45;25.25;;;;;;;;;;4862241;29;20105;-93